Flight Track Log - Related Links

Times and Time Zones

All times are in EDT time to prevent confusion due to time zone crossing. See the OPT404 flight status page for this flight to view local times or setup timezone preferences in your user account.

Time Position Orientation Groundspeed Altitude Reporting Facility
EDT Latitude Longitude Course Direction KTS MPH feet Rate Location/Type
Thu 01:56:44 PM 29.5250 -98.4661 90° East 149 171 1,800  Level Houston Center
Thu 01:57:33 PM 29.4986 -98.4308 131° Southeast 167 192 4,700 3,379 Climbing Houston Center
Thu 01:58:27 PM 29.5042 -98.3750 83° East 209 241 7,600 3,052 Climbing Houston Center
Thu 01:59:29 PM 29.5247 -98.3047 71° East 233 268 10,600 2,903 Climbing Houston Center
Thu 02:00:31 PM 29.5486 -98.2158 73° East 270 311 13,600 2,468 Climbing Houston Center
Thu 02:01:33 PM 29.5731 -98.1242 73° East 301 346 15,700 2,226 Climbing Houston Center
Thu 02:02:00 PM 29.6500 -97.9824 90° East  Level FlightAware Approximate
Thu 02:02:35 PM 29.5789 -98.0131 87° East 327 376 18,200  Level Houston Center
Thu 02:03:37 PM 29.5786 -97.9075 90° East 332 382 20,700 2,274 Climbing Houston Center
Thu 02:04:39 PM 29.5769 -97.7950 91° East 337 388 22,900 2,016 Climbing Houston Center
Thu 02:05:42 PM 29.5758 -97.6836 91° East 346 398 24,900 1,008 Climbing Houston Center
Thu 02:06:44 PM 29.5739 -97.5653 91° East 363 418 25,000 48 Climbing Houston Center
Thu 02:07:46 PM 29.5719 -97.4436 91° East 378 435 25,000 -48 Level Houston Center
Thu 02:08:48 PM 29.5692 -97.3231 91° East 378 435 24,900 -484 Descending Houston Center
Thu 02:09:50 PM 29.5683 -97.2025 90° East 377 434 24,000 -435 Descending Houston Center
Thu 02:10:52 PM 29.5656 -97.0800 91° East 380 437 24,000  Level Houston Center
Thu 02:11:54 PM 29.5622 -96.9350 91° East 376 433 24,000  Level Houston Center
Thu 02:12:57 PM 29.5603 -96.8153 91° East 371 427 24,000  Level Houston Center
Thu 02:13:59 PM 29.5578 -96.6942 91° East 375 432 24,000 -1,306 Level Houston Center
Thu 02:15:01 PM 29.5547 -96.5758 92° East 372 428 21,300 -3,000 Descending Houston Center
Thu 02:16:03 PM 29.5525 -96.4542 91° East 376 433 17,800 -3,242 Descending Houston Center
Thu 02:17:05 PM 29.5492 -96.3336 92° East 378 435 14,600 -3,145 Descending Houston Center
Thu 02:18:07 PM 29.5458 -96.2167 92° East 368 423 11,300 -2,780 Descending Houston Center
Thu 02:19:08 PM 29.5797 -96.1003 71° East 319 367 8,900 -2,115 Descending Houston Center
Thu 02:20:09 PM 29.6225 -96.0139 60° Northeast 288 331 7,000 -1,869 Descending Houston Center
Thu 02:21:10 PM 29.6600 -95.9375 61° Northeast 262 302 5,100 -1,475 Descending Houston Center
Thu 02:22:11 PM 29.6958 -95.8661 60° Northeast 260 299 4,000 -541 Descending Houston Center
Thu 02:23:12 PM 29.7297 -95.7997 60° Northeast 235 270 4,000 -246 Level Houston Center
Thu 02:24:13 PM 29.7617 -95.7333 61° Northeast 225 259 3,500 -488 Descending Houston Center
Thu 02:25:15 PM 29.7972 -95.6619 60° Northeast 252 290 3,000 -726 Descending Houston Center
Thu 02:26:17 PM 29.8314 -95.5978 58° Northeast 227 261 2,000 -488 Descending Houston Center
Thu 02:27:18 PM 29.8694 -95.5522 46° Northeast 191 220 2,000  Level Houston Center
Thu 02:28:19 PM 29.9233 -95.5458 North 186 214 2,000 -154 Level Houston Center
Thu 02:29:15 PM 29.9692 -95.5406 North 190 219 1,700 -250 Descending Houston Center
Thu 02:29:31 PM 29.9761 -95.5411 356° North 190 219 1,700 -896 Level Houston Center
Thu 02:30:22 PM 30.0203 -95.5489 351° North 157 181 700 -1,176 Descending Houston Center
Thu 02:32:00 PM 30.0500 -95.5500 337° Northwest  Level FlightAware Approximate
Thu 02:39:00 PM 30.0618 -95.5528 337° Northwest  Level Estimated

Login

Don't have an account? Register now (free) for customized features, flight alerts, and more!